createdAt,value
2018-03-20T00:02:15.425Z,100243.48
2018-03-20T00:04:42.866Z,100247.16
2018-03-20T00:07:10.317Z,100246.94
2018-03-20T00:09:37.805Z,100246.95
2018-03-20T00:12:05.254Z,100244.76
2018-03-20T00:14:32.749Z,100249.89
2018-03-20T00:17:00.197Z,100247.28
2018-03-20T00:19:27.653Z,100246.92
2018-03-20T00:21:55.141Z,100248.97
2018-03-20T00:24:22.590Z,100254.74
2018-03-20T00:26:50.069Z,100253.61
2018-03-20T00:29:17.531Z,100256.16
2018-03-20T00:31:45.871Z,100258.50
2018-03-20T00:34:13.334Z,100257.36
2018-03-20T00:36:40.776Z,100258.23
2018-03-20T00:39:08.388Z,100264.53
2018-03-20T00:41:35.825Z,100273.28
2018-03-20T00:44:03.273Z,100270.12
2018-03-20T00:46:30.734Z,100273.08
2018-03-20T00:48:58.199Z,100271.86
2018-03-20T00:51:25.770Z,100274.04
2018-03-20T00:53:53.212Z,100275.86
2018-03-20T00:56:20.733Z,100277.17
2018-03-20T00:58:48.207Z,100271.89
2018-03-20T01:01:15.650Z,100264.92
2018-03-20T01:03:43.290Z,100270.86
2018-03-20T01:06:10.733Z,100271.42
2018-03-20T01:08:38.173Z,100264.56
2018-03-20T01:11:05.637Z,100269.53
2018-03-20T01:13:33.077Z,100267.83
2018-03-20T01:16:00.583Z,100266.81
2018-03-20T01:18:28.741Z,100264.98
2018-03-20T01:20:56.197Z,100263.46
2018-03-20T01:23:23.661Z,100271.12
2018-03-20T01:25:51.105Z,100264.61
2018-03-20T01:28:18.809Z,100271.44
2018-03-20T01:30:46.317Z,100265.12
2018-03-20T01:33:13.766Z,100263.73
2018-03-20T01:35:41.229Z,100265.56
2018-03-20T01:38:08.673Z,100260.90
2018-03-20T01:40:36.257Z,100255.09
2018-03-20T01:43:03.733Z,100251.04
2018-03-20T01:45:31.174Z,100259.61
2018-03-20T01:47:58.637Z,100258.91
2018-03-20T01:50:26.082Z,100264.72
2018-03-20T01:53:05.917Z,100264.20
2018-03-20T01:55:33.397Z,100257.41
2018-03-20T01:58:00.849Z,100262.72
2018-03-20T02:00:28.333Z,100265.23
2018-03-20T02:02:55.786Z,100259.02
2018-03-20T02:05:23.250Z,100259.34
2018-03-20T02:07:50.704Z,100250.52
2018-03-20T02:10:18.155Z,100259.65
2018-03-20T02:12:45.641Z,100261.62
2018-03-20T02:15:13.109Z,100262.16
2018-03-20T02:17:40.609Z,100263.05
2018-03-20T02:20:08.053Z,100262.78
2018-03-20T02:22:35.506Z,100263.92
2018-03-20T02:25:02.978Z,100264.94
2018-03-20T02:27:30.425Z,100260.77
2018-03-20T02:29:58.045Z,100268.30
2018-03-20T02:32:25.485Z,100269.97
2018-03-20T02:34:52.934Z,100272.03
2018-03-20T02:37:20.416Z,100267.44
2018-03-20T02:39:49.305Z,100266.11
2018-03-20T02:42:17.333Z,100276.47
2018-03-20T02:44:44.798Z,100282.39
2018-03-20T02:47:12.242Z,100285.41
2018-03-20T02:49:39.711Z,100291.17
2018-03-20T02:52:07.153Z,100281.79
2018-03-20T02:54:34.770Z,100286.47
2018-03-20T02:57:02.242Z,100288.52
2018-03-20T02:59:29.692Z,100289.05
2018-03-20T03:01:57.158Z,100291.09
2018-03-20T03:04:24.610Z,100306.71
2018-03-20T03:06:52.093Z,100296.41
2018-03-20T03:09:19.561Z,100306.01
2018-03-20T03:11:47.023Z,100303.67
2018-03-20T03:14:14.501Z,100310.25
2018-03-20T03:16:41.945Z,100310.27
2018-03-20T03:19:09.581Z,100310.09
2018-03-20T03:21:37.025Z,100309.42
2018-03-20T03:24:04.478Z,100320.61
2018-03-20T03:26:32.322Z,100324.64
2018-03-20T03:28:59.832Z,100336.55
2018-03-20T03:31:27.341Z,100322.42
2018-03-20T03:33:54.833Z,100328.27
2018-03-20T03:36:22.273Z,100336.47
2018-03-20T03:38:50.132Z,100330.52
2018-03-20T03:41:17.574Z,100334.98
2018-03-20T03:43:45.163Z,100334.11
2018-03-20T03:46:12.633Z,100336.44
2018-03-20T03:48:40.106Z,100338.59
2018-03-20T03:51:07.571Z,100347.02
2018-03-20T03:53:35.021Z,100347.09
2018-03-20T03:56:02.509Z,100352.00
2018-03-20T03:58:29.980Z,100355.38
2018-03-20T04:00:57.429Z,100350.88
2018-03-20T04:03:24.916Z,100354.73
2018-03-20T04:05:52.357Z,100354.92
2018-03-20T04:08:20.102Z,100351.73
2018-03-20T04:10:47.547Z,100353.73
2018-03-20T04:13:14.989Z,100355.53
2018-03-20T04:15:42.453Z,100355.44
2018-03-20T04:18:09.908Z,100356.78
2018-03-20T04:20:37.413Z,100364.19
2018-03-20T04:23:04.870Z,100362.55
2018-03-20T04:25:32.330Z,100366.03
2018-03-20T04:27:59.812Z,100367.81
2018-03-20T04:30:27.258Z,100366.23
2018-03-20T04:32:54.906Z,100360.38
2018-03-20T04:35:22.360Z,100367.47
2018-03-20T04:37:49.805Z,100366.88
2018-03-20T04:40:17.306Z,100364.97
2018-03-20T04:42:44.761Z,100362.98
2018-03-20T04:45:12.245Z,100372.61
2018-03-20T04:47:39.693Z,100373.66
2018-03-20T04:50:07.138Z,100366.53
2018-03-20T04:52:34.622Z,100371.12
2018-03-20T04:55:02.061Z,100370.03
2018-03-20T04:57:29.852Z,100380.63
2018-03-20T04:59:57.312Z,100384.27
2018-03-20T05:02:24.756Z,100389.50
2018-03-20T05:04:52.222Z,100399.05
2018-03-20T05:07:19.669Z,100396.63
2018-03-20T05:09:47.160Z,100396.91
2018-03-20T05:12:14.644Z,100398.17
2018-03-20T05:14:42.069Z,100397.34
2018-03-20T05:17:09.543Z,100396.46
2018-03-20T05:22:51.137Z,100397.20
2018-03-20T05:25:18.577Z,100394.53
2018-03-20T05:27:46.049Z,100398.83
2018-03-20T05:30:13.493Z,100402.63
2018-03-20T05:32:41.106Z,100404.58
2018-03-20T05:35:08.557Z,100406.02
2018-03-20T05:37:35.998Z,100409.90
2018-03-20T05:40:03.485Z,100412.93
2018-03-20T05:42:30.937Z,100408.86
2018-03-20T05:44:58.534Z,100413.73
2018-03-20T05:50:36.801Z,100418.66
2018-03-20T05:53:04.250Z,100425.84
2018-03-20T05:55:31.709Z,100422.30
2018-03-20T05:57:59.193Z,100417.75
2018-03-20T06:00:26.658Z,100429.06
2018-03-20T06:02:54.185Z,100436.55
2018-03-20T06:05:21.648Z,100430.00
2018-03-20T06:07:49.097Z,100426.64
2018-03-20T06:10:16.561Z,100429.22
2018-03-20T06:12:44.030Z,100427.64
2018-03-20T06:15:11.502Z,100431.02
2018-03-20T06:17:38.958Z,100422.48
2018-03-20T06:20:06.399Z,100422.69
2018-03-20T06:22:33.869Z,100424.95
2018-03-20T06:25:01.306Z,100421.16
2018-03-20T06:27:28.784Z,100421.34
2018-03-20T06:29:56.230Z,100416.09
2018-03-20T06:32:23.676Z,100410.45
2018-03-20T06:34:51.137Z,100415.12
2018-03-20T06:37:18.582Z,100434.56
2018-03-20T06:39:46.285Z,100455.86
2018-03-20T06:42:13.733Z,100444.28
2018-03-20T06:44:41.204Z,100448.89
2018-03-20T06:47:08.677Z,100442.81
2018-03-20T06:49:36.122Z,100450.22
2018-03-20T06:52:03.603Z,100458.02
2018-03-20T06:54:31.050Z,100454.71
2018-03-20T06:56:58.513Z,100446.77
2018-03-20T06:59:25.978Z,100431.00
2018-03-20T07:01:53.436Z,100439.64
2018-03-20T07:04:21.285Z,100443.16
2018-03-20T07:06:48.725Z,100441.30
2018-03-20T07:09:16.177Z,100446.16
2018-03-20T07:11:43.675Z,100448.92
2018-03-20T07:14:11.142Z,100450.55
2018-03-20T07:16:38.857Z,100456.92
2018-03-20T07:19:06.369Z,100450.67
2018-03-20T07:21:33.845Z,100451.77
2018-03-20T07:24:01.317Z,100456.22
2018-03-20T07:26:28.761Z,100455.86
2018-03-20T07:28:56.413Z,100453.00
2018-03-20T07:31:23.874Z,100449.09
2018-03-20T07:33:51.317Z,100444.23
2018-03-20T07:36:18.802Z,100443.13
2018-03-20T07:38:46.244Z,100447.73
2018-03-20T07:41:13.944Z,100450.19
2018-03-20T07:43:41.421Z,100447.82
2018-03-20T07:46:08.864Z,100443.25
2018-03-20T07:48:36.335Z,100456.44
2018-03-20T07:51:03.797Z,100458.02
2018-03-20T07:53:31.397Z,100459.93
2018-03-20T07:55:58.841Z,100455.48
2018-03-20T07:58:26.283Z,100456.73
2018-03-20T08:00:53.773Z,100455.69
2018-03-20T08:03:21.213Z,100448.02
2018-03-20T08:05:48.867Z,100447.99
2018-03-20T08:08:16.312Z,100445.62
2018-03-20T08:10:43.773Z,100446.87
2018-03-20T08:13:11.255Z,100443.26
2018-03-20T08:15:38.712Z,100448.84
2018-03-20T08:18:06.401Z,100444.95
2018-03-20T08:20:33.855Z,100448.98
2018-03-20T08:23:01.301Z,100451.20
2018-03-20T08:25:28.768Z,100458.24
2018-03-20T08:27:56.217Z,100461.28
2018-03-20T08:30:23.853Z,100466.19
2018-03-20T08:32:51.305Z,100464.58
2018-03-20T08:35:18.754Z,100463.22
2018-03-20T08:37:46.233Z,100467.27
2018-03-20T08:40:13.673Z,100462.20
2018-03-20T08:42:41.298Z,100458.98
2018-03-20T08:45:08.737Z,100470.34
2018-03-20T08:47:36.181Z,100466.70
2018-03-20T08:50:03.693Z,100468.28
2018-03-20T08:52:31.203Z,100475.58
2018-03-20T08:54:58.953Z,100476.80
2018-03-20T08:57:26.390Z,100484.50
2018-03-20T08:59:53.825Z,100479.54
2018-03-20T09:02:21.301Z,100484.65
2018-03-20T09:04:48.766Z,100497.56
2018-03-20T09:07:16.405Z,100495.56
2018-03-20T09:09:43.858Z,100493.01
2018-03-20T09:12:11.297Z,100494.03
2018-03-20T09:14:38.775Z,100491.61
2018-03-20T09:17:06.239Z,100492.58
2018-03-20T09:19:33.837Z,100499.81
2018-03-20T09:22:01.274Z,100500.52
2018-03-20T09:24:28.764Z,100495.03
2018-03-20T09:26:56.232Z,100500.61
2018-03-20T09:29:23.674Z,100499.27
2018-03-20T09:31:51.413Z,100498.59
2018-03-20T09:34:18.861Z,100498.89
2018-03-20T09:49:47.278Z,100490.91
2018-03-20T09:52:14.969Z,100478.88
2018-03-20T09:54:42.434Z,100489.16
2018-03-20T09:57:09.886Z,100483.02
2018-03-20T09:59:37.366Z,100481.49
2018-03-20T10:02:04.820Z,100488.22
2018-03-20T10:04:32.285Z,100493.23
2018-03-20T10:06:59.742Z,100492.09
2018-03-20T10:09:27.182Z,100493.09
2018-03-20T10:11:54.650Z,100498.30
2018-03-20T10:14:22.105Z,100494.39
2018-03-20T10:16:49.885Z,100499.27
2018-03-20T10:19:17.349Z,100498.10
2018-03-20T10:21:44.795Z,100503.38
2018-03-20T10:24:12.273Z,100508.19
2018-03-20T10:26:39.734Z,100514.23
2018-03-20T10:29:07.433Z,100506.13
2018-03-20T10:31:34.888Z,100512.66
2018-03-20T10:34:02.337Z,100517.15
2018-03-20T10:36:29.837Z,100511.45
2018-03-20T10:38:57.617Z,100517.05
2018-03-20T10:41:25.286Z,100518.47
2018-03-20T10:43:52.948Z,100519.06
2018-03-20T10:46:20.349Z,100516.06
2018-03-20T10:48:47.846Z,100517.80
2018-03-20T10:51:15.290Z,100534.35
2018-03-20T10:53:42.762Z,100541.34
2018-03-20T10:56:10.205Z,100536.19
2018-03-20T10:58:37.665Z,100531.50
2018-03-20T11:01:05.959Z,100526.73
2018-03-20T11:03:33.429Z,100526.25
2018-03-20T11:06:00.934Z,100529.80
2018-03-20T11:08:28.389Z,100533.78
2018-03-20T11:10:56.157Z,100530.75
2018-03-20T11:13:23.607Z,100525.37
2018-03-20T11:15:51.060Z,100526.34
2018-03-20T11:18:18.537Z,100527.66
2018-03-20T11:20:45.985Z,100528.09
2018-03-20T11:23:13.702Z,100529.91
2018-03-20T11:25:41.161Z,100534.29
2018-03-20T11:28:08.609Z,100540.39
2018-03-20T11:30:36.085Z,100544.64
2018-03-20T11:33:03.534Z,100551.75
2018-03-20T11:35:31.110Z,100553.06
2018-03-20T11:37:58.562Z,100553.06
2018-03-20T11:40:26.023Z,100548.64
2018-03-20T11:42:53.518Z,100537.69
2018-03-20T11:45:20.974Z,100541.14
2018-03-20T11:47:48.814Z,100553.54
2018-03-20T11:50:16.273Z,100550.95
2018-03-20T11:52:43.729Z,100555.77
2018-03-20T11:55:11.206Z,100560.91
2018-03-20T11:57:38.653Z,100567.91
2018-03-20T12:00:06.267Z,100575.73
2018-03-20T12:02:33.713Z,100575.78
2018-03-20T12:05:01.171Z,100581.54
2018-03-20T12:07:28.637Z,100582.37
2018-03-20T12:09:56.113Z,100590.20
2018-03-20T12:12:23.585Z,100586.80
2018-03-20T12:14:51.045Z,100584.66
2018-03-20T12:17:18.774Z,100588.11
2018-03-20T12:19:46.236Z,100590.30
2018-03-20T12:22:13.765Z,100589.03
2018-03-20T12:24:41.229Z,100589.82
2018-03-20T12:27:08.679Z,100599.50
2018-03-20T12:29:36.315Z,100595.17
2018-03-20T12:32:03.772Z,100605.20
2018-03-20T12:34:31.217Z,100602.50
2018-03-20T12:36:58.702Z,100605.57
2018-03-20T12:39:26.153Z,100598.67
2018-03-20T12:41:53.769Z,100611.71
2018-03-20T12:44:21.226Z,100617.91
2018-03-20T12:46:48.701Z,100625.86
2018-03-20T12:49:16.154Z,100621.95
2018-03-20T12:51:43.610Z,100622.34
2018-03-20T12:54:11.202Z,100633.10
2018-03-20T12:56:38.649Z,100641.45
2018-03-20T12:59:06.098Z,100640.13
2018-03-20T13:01:33.561Z,100643.31
2018-03-20T13:04:01.037Z,100647.27
2018-03-20T13:06:28.776Z,100648.09
2018-03-20T13:08:56.280Z,100649.45
2018-03-20T13:11:23.741Z,100652.53
2018-03-20T13:13:51.219Z,100656.52
2018-03-20T13:16:18.696Z,100650.84
2018-03-20T13:18:46.421Z,100655.21
2018-03-20T13:21:13.897Z,100661.36
2018-03-20T13:23:41.346Z,100667.48
2018-03-20T13:26:08.813Z,100674.44
2018-03-20T13:28:36.266Z,100673.84
2018-03-20T13:31:03.765Z,100665.61
2018-03-20T13:33:31.215Z,100673.98
2018-03-20T13:35:58.682Z,100683.55
2018-03-20T13:38:26.159Z,100678.73
2018-03-20T13:40:53.705Z,100681.00
2018-03-20T13:43:21.205Z,100688.44
2018-03-20T13:45:48.685Z,100689.27
2018-03-20T13:48:16.137Z,100683.46
2018-03-20T13:50:43.626Z,100699.23
2018-03-20T13:53:16.577Z,100698.37
2018-03-20T13:55:44.065Z,100704.48
2018-03-20T13:58:11.562Z,100701.93
2018-03-20T14:00:39.010Z,100713.80
2018-03-20T14:03:06.498Z,100709.92
2018-03-20T14:05:33.969Z,100707.81
2018-03-20T14:08:01.444Z,100710.05
2018-03-20T14:10:28.907Z,100716.63
2018-03-20T14:12:56.359Z,100710.00
2018-03-20T14:15:23.830Z,100716.69
2018-03-20T14:17:51.292Z,100716.19
2018-03-20T14:20:19.002Z,100718.45
2018-03-20T14:22:46.449Z,100720.95
2018-03-20T14:25:13.909Z,100715.82
2018-03-20T14:27:41.381Z,100721.47
2018-03-20T14:30:08.845Z,100716.70
2018-03-20T14:32:36.558Z,100714.61
2018-03-20T14:35:04.018Z,100714.13
2018-03-20T14:37:31.505Z,100712.38
2018-03-20T14:39:58.960Z,100717.23
2018-03-20T14:42:26.414Z,100724.26
2018-03-20T14:44:53.902Z,100717.23
2018-03-20T14:47:21.349Z,100725.13
2018-03-20T14:49:48.813Z,100726.89
2018-03-20T14:52:16.282Z,100721.70
2018-03-20T14:54:43.725Z,100727.38
2018-03-20T14:57:11.198Z,100732.23
2018-03-20T14:59:38.661Z,100730.50
2018-03-20T15:02:06.111Z,100736.18
2018-03-20T15:04:33.577Z,100733.55
2018-03-20T15:07:01.031Z,100734.86
2018-03-20T15:09:28.597Z,100737.53
2018-03-20T15:11:56.053Z,100744.55
2018-03-20T15:14:23.497Z,100744.92
2018-03-20T15:16:50.965Z,100748.39
2018-03-20T15:19:18.419Z,100746.58
2018-03-20T15:21:45.901Z,100745.31
2018-03-20T15:24:13.341Z,100743.12
2018-03-20T15:26:40.797Z,100751.02
2018-03-20T15:29:08.261Z,100755.41
2018-03-20T15:31:35.729Z,100760.67
2018-03-20T15:34:03.234Z,100759.84
2018-03-20T15:36:30.677Z,100758.95
2018-03-20T15:38:58.154Z,100768.57
2018-03-20T15:41:25.619Z,100778.66
2018-03-20T15:43:53.057Z,100780.84
2018-03-20T15:46:20.538Z,100784.41
2018-03-20T15:48:47.977Z,100782.17
2018-03-20T15:51:15.477Z,100787.48
2018-03-20T15:53:42.942Z,100784.40
2018-03-20T15:56:10.385Z,100790.94
2018-03-20T15:58:38.143Z,100796.25
2018-03-20T16:01:05.595Z,100801.96
2018-03-20T16:03:33.057Z,100810.29
2018-03-20T16:06:00.526Z,100811.18
2018-03-20T16:08:28.365Z,100810.73
2018-03-20T16:10:55.846Z,100810.29
2018-03-20T16:13:23.297Z,100811.17
2018-03-20T16:15:50.755Z,100808.05
2018-03-20T16:18:18.217Z,100813.31
2018-03-20T16:20:48.090Z,100820.77
2018-03-20T16:23:22.261Z,100828.66
2018-03-20T16:25:49.715Z,100837.93
2018-03-20T16:28:17.165Z,100840.52
2018-03-20T16:30:44.650Z,100841.81
2018-03-20T16:33:12.101Z,100847.53
2018-03-20T16:35:39.798Z,100845.76
2018-03-20T16:38:07.255Z,100848.38
2018-03-20T16:40:34.743Z,100856.23
2018-03-20T16:43:02.223Z,100865.43
2018-03-20T16:45:29.682Z,100867.63
2018-03-20T16:47:57.490Z,100871.15
2018-03-20T16:50:24.938Z,100880.41
2018-03-20T16:52:52.404Z,100880.85
2018-03-20T16:55:19.868Z,100883.47
2018-03-20T16:57:47.332Z,100890.87
2018-03-20T17:00:14.981Z,100887.87
2018-03-20T17:02:42.438Z,100886.11
2018-03-20T17:05:09.898Z,100894.91
2018-03-20T17:07:37.374Z,100901.47
2018-03-20T17:10:04.825Z,100906.75
2018-03-20T17:12:32.430Z,100909.30
2018-03-20T17:14:59.869Z,100913.22
2018-03-20T17:17:27.347Z,100911.01
2018-03-20T17:19:54.841Z,100919.28
2018-03-20T17:22:22.295Z,100928.47
2018-03-20T17:24:50.066Z,100927.94
2018-03-20T17:27:17.543Z,100932.78
2018-03-20T17:29:45.014Z,100940.22
2018-03-20T17:32:12.496Z,100942.09
2018-03-20T17:34:40.302Z,100952.36
2018-03-20T17:37:08.158Z,100951.47
2018-03-20T17:39:35.607Z,100956.28
2018-03-20T17:42:03.076Z,100955.86
2018-03-20T17:44:30.559Z,100968.64
2018-03-20T17:46:58.045Z,100978.17
2018-03-20T17:49:26.421Z,100980.52
2018-03-20T17:51:53.891Z,100985.20
2018-03-20T17:54:21.386Z,100999.42
2018-03-20T17:56:48.865Z,100998.48
2018-03-20T17:59:16.307Z,101006.48
2018-03-20T18:01:43.865Z,101013.56
2018-03-20T18:04:11.323Z,101023.07
2018-03-20T18:06:38.798Z,101028.10
2018-03-20T18:09:06.266Z,101045.20
2018-03-20T18:11:33.723Z,101038.46
2018-03-20T18:14:01.206Z,101042.54
2018-03-20T18:16:28.704Z,101044.04
2018-03-20T18:18:56.162Z,101044.69
2018-03-20T18:21:23.645Z,101047.00
2018-03-20T18:23:51.113Z,101057.59
2018-03-20T18:26:18.785Z,101056.03
2018-03-20T18:28:46.370Z,101064.89
2018-03-20T18:31:13.829Z,101071.96
2018-03-20T18:33:41.307Z,101081.25
2018-03-20T18:36:08.798Z,101088.22
2018-03-20T18:38:36.293Z,101086.19
2018-03-20T18:41:03.747Z,101093.72
2018-03-20T18:43:31.197Z,101099.77
2018-03-20T18:45:58.669Z,101104.80
2018-03-20T18:48:26.130Z,101106.48
2018-03-20T18:50:53.793Z,101107.60
2018-03-20T18:53:21.238Z,101109.71
2018-03-20T18:55:48.679Z,101110.70
2018-03-20T18:58:16.140Z,101113.21
2018-03-20T19:00:43.590Z,101104.45
2018-03-20T19:03:11.074Z,101121.09
2018-03-20T19:05:38.540Z,101124.98
2018-03-20T19:08:06.018Z,101118.61
2018-03-20T19:10:33.513Z,101121.03
2018-03-20T19:13:00.962Z,101124.38
2018-03-20T19:15:28.578Z,101131.39
2018-03-20T19:17:56.049Z,101139.56
2018-03-20T19:20:23.501Z,101144.31
2018-03-20T19:22:50.988Z,101150.41
2018-03-20T19:25:18.454Z,101149.64
2018-03-20T19:27:45.946Z,101156.55
2018-03-20T19:30:13.394Z,101156.05
2018-03-20T19:32:40.865Z,101159.56
2018-03-20T19:35:08.362Z,101160.73
2018-03-20T19:37:35.830Z,101167.89
2018-03-20T19:40:04.109Z,101173.56
2018-03-20T19:42:31.558Z,101183.20
2018-03-20T19:44:59.826Z,101182.64
2018-03-20T19:47:28.555Z,101184.85
2018-03-20T19:49:56.018Z,101189.73
2018-03-20T19:52:23.492Z,101192.70
2018-03-20T19:54:50.952Z,101198.48
2018-03-20T19:57:18.409Z,101199.84
2018-03-20T19:59:45.891Z,101203.15
2018-03-20T20:02:13.342Z,101208.25
2018-03-20T20:04:40.868Z,101212.49
2018-03-20T20:07:08.327Z,101211.09
2018-03-20T20:09:35.785Z,101218.47
2018-03-20T20:12:03.269Z,101220.92
2018-03-20T20:14:30.758Z,101221.06
2018-03-20T20:16:58.265Z,101231.70
2018-03-20T20:19:25.732Z,101228.69
2018-03-20T20:21:53.224Z,101224.72
2018-03-20T20:24:20.745Z,101231.96
2018-03-20T20:26:48.218Z,101236.37
2018-03-20T20:29:16.314Z,101234.58
2018-03-20T20:31:43.803Z,101242.36
2018-03-20T20:34:11.282Z,101251.72
2018-03-20T20:36:38.765Z,101248.86
2018-03-20T20:39:06.222Z,101250.63
2018-03-20T20:41:36.658Z,101255.49
2018-03-20T20:44:05.086Z,101257.02
2018-03-20T20:46:32.570Z,101257.27
2018-03-20T20:49:00.058Z,101265.68
2018-03-20T20:51:27.529Z,101276.03
2018-03-20T20:53:55.300Z,101272.33
2018-03-20T20:56:22.848Z,101283.72
2018-03-20T20:58:51.351Z,101285.38
2018-03-20T21:01:18.877Z,101286.15
2018-03-20T21:03:46.338Z,101285.98
2018-03-20T21:06:14.234Z,101293.48
2018-03-20T21:08:41.715Z,101292.99
2018-03-20T21:11:09.165Z,101294.98
2018-03-20T21:13:36.657Z,101294.05
2018-03-20T21:16:04.113Z,101292.44
2018-03-20T21:18:31.622Z,101288.16
2018-03-20T21:20:59.088Z,101297.63
2018-03-20T21:23:26.567Z,101298.58
2018-03-20T21:25:54.050Z,101296.09
2018-03-20T21:28:21.530Z,101294.13
2018-03-20T21:30:49.015Z,101301.58
2018-03-20T21:33:16.489Z,101300.37
2018-03-20T21:35:43.963Z,101297.06
2018-03-20T21:38:11.419Z,101313.09
2018-03-20T21:40:38.897Z,101305.15
2018-03-20T21:43:06.354Z,101301.28
2018-03-20T21:45:33.820Z,101299.09
2018-03-20T21:48:01.318Z,101306.73
2018-03-20T21:50:28.793Z,101304.55
2018-03-20T21:52:56.259Z,101314.87
2018-03-20T21:55:23.953Z,101316.36
2018-03-20T21:57:51.413Z,101313.92
2018-03-20T22:00:18.878Z,101311.33
2018-03-20T22:02:46.365Z,101318.39
2018-03-20T22:05:13.838Z,101323.81
2018-03-20T22:07:41.500Z,101315.73
2018-03-20T22:10:08.962Z,101319.33
2018-03-20T22:12:36.418Z,101317.25
2018-03-20T22:15:03.894Z,101321.86
2018-03-20T22:17:31.350Z,101324.90
2018-03-20T22:19:58.945Z,101330.07
2018-03-20T22:22:26.425Z,101329.02
2018-03-20T22:24:53.887Z,101327.77
2018-03-20T22:27:21.363Z,101329.38
2018-03-20T22:29:48.853Z,101336.94
2018-03-20T22:32:16.353Z,101335.53
2018-03-20T22:34:43.820Z,101343.98
2018-03-20T22:37:11.291Z,101342.95
2018-03-20T22:39:38.801Z,101346.74
2018-03-20T22:42:06.250Z,101353.97
2018-03-20T22:44:33.733Z,101354.86
2018-03-20T22:47:01.212Z,101350.41
2018-03-20T22:49:28.723Z,101359.41
2018-03-20T22:51:56.213Z,101362.09
2018-03-20T22:54:23.661Z,101367.10
2018-03-20T22:56:51.145Z,101369.78
2018-03-20T22:59:18.613Z,101372.81
2018-03-20T23:01:46.073Z,101377.42
2018-03-20T23:04:13.554Z,101381.80
2018-03-20T23:06:41.009Z,101386.91
2018-03-20T23:09:08.734Z,101376.95
2018-03-20T23:11:36.205Z,101387.77
2018-03-20T23:14:03.669Z,101382.92
2018-03-20T23:16:31.145Z,101386.20
2018-03-20T23:18:58.627Z,101388.89
2018-03-20T23:21:26.109Z,101396.27
2018-03-20T23:23:53.604Z,101389.23
2018-03-20T23:26:21.053Z,101400.31
2018-03-20T23:28:48.530Z,101403.36
2018-03-20T23:31:15.992Z,101400.00
2018-03-20T23:33:43.614Z,101413.93
2018-03-20T23:36:11.071Z,101422.25
2018-03-20T23:38:38.521Z,101422.81
2018-03-20T23:41:06.001Z,101420.72
2018-03-20T23:43:33.463Z,101424.21
2018-03-20T23:46:00.961Z,101418.62
2018-03-20T23:48:28.421Z,101421.25
2018-03-20T23:50:55.877Z,101423.41
2018-03-20T23:53:23.352Z,101423.34
2018-03-20T23:55:50.801Z,101422.70
2018-03-20T23:58:18.273Z,101425.57
